sensor_id;sensor_type;location;lat;lon;timestamp;P1;durP1;ratioP1;P2;durP2;ratioP2
67839;SDS011;54636;51.684;5.142;2023-08-06T00:00:15;2.63;;;2.53;;
67839;SDS011;54636;51.684;5.142;2023-08-06T00:02:41;3.72;;;3.38;;
67839;SDS011;54636;51.684;5.142;2023-08-06T00:05:06;3.80;;;3.00;;
67839;SDS011;54636;51.684;5.142;2023-08-06T00:07:32;3.25;;;2.95;;
67839;SDS011;54636;51.684;5.142;2023-08-06T00:09:57;2.92;;;2.53;;
67839;SDS011;54636;51.684;5.142;2023-08-06T00:12:22;3.95;;;3.55;;
67839;SDS011;54636;51.684;5.142;2023-08-06T00:14:51;5.60;;;2.88;;
67839;SDS011;54636;51.684;5.142;2023-08-06T00:17:17;3.90;;;3.03;;
67839;SDS011;54636;51.684;5.142;2023-08-06T00:19:43;4.00;;;2.80;;
67839;SDS011;54636;51.684;5.142;2023-08-06T00:22:08;4.68;;;3.28;;
67839;SDS011;54636;51.684;5.142;2023-08-06T00:24:34;5.95;;;3.38;;
67839;SDS011;54636;51.684;5.142;2023-08-06T00:26:59;3.75;;;3.22;;
67839;SDS011;54636;51.684;5.142;2023-08-06T00:29:25;3.30;;;3.10;;
67839;SDS011;54636;51.684;5.142;2023-08-06T00:31:50;5.05;;;3.58;;
67839;SDS011;54636;51.684;5.142;2023-08-06T00:34:16;3.03;;;2.83;;
67839;SDS011;54636;51.684;5.142;2023-08-06T00:36:41;4.43;;;3.25;;
67839;SDS011;54636;51.684;5.142;2023-08-06T00:39:07;4.22;;;3.17;;
67839;SDS011;54636;51.684;5.142;2023-08-06T00:41:32;6.78;;;3.45;;
67839;SDS011;54636;51.684;5.142;2023-08-06T00:43:57;4.07;;;3.20;;
67839;SDS011;54636;51.684;5.142;2023-08-06T00:46:23;4.07;;;3.13;;
67839;SDS011;54636;51.684;5.142;2023-08-06T00:48:48;6.07;;;3.20;;
67839;SDS011;54636;51.684;5.142;2023-08-06T00:51:16;3.83;;;3.00;;
67839;SDS011;54636;51.684;5.142;2023-08-06T00:53:41;7.95;;;3.22;;
67839;SDS011;54636;51.684;5.142;2023-08-06T00:56:07;6.70;;;3.17;;
67839;SDS011;54636;51.684;5.142;2023-08-06T00:58:34;3.60;;;3.30;;
67839;SDS011;54636;51.684;5.142;2023-08-06T01:01:01;4.38;;;3.00;;
67839;SDS011;54636;51.684;5.142;2023-08-06T01:03:27;4.65;;;3.05;;
67839;SDS011;54636;51.684;5.142;2023-08-06T01:05:52;3.30;;;3.00;;
67839;SDS011;54636;51.684;5.142;2023-08-06T01:11:12;3.17;;;3.00;;
67839;SDS011;54636;51.684;5.142;2023-08-06T01:13:47;2.97;;;2.88;;
67839;SDS011;54636;51.684;5.142;2023-08-06T01:16:17;3.20;;;3.00;;
67839;SDS011;54636;51.684;5.142;2023-08-06T01:18:44;7.30;;;3.20;;
67839;SDS011;54636;51.684;5.142;2023-08-06T01:21:14;3.25;;;3.05;;
67839;SDS011;54636;51.684;5.142;2023-08-06T01:23:43;4.03;;;3.22;;
67839;SDS011;54636;51.684;5.142;2023-08-06T01:26:18;4.22;;;2.70;;
67839;SDS011;54636;51.684;5.142;2023-08-06T01:31:59;4.20;;;3.15;;
67839;SDS011;54636;51.684;5.142;2023-08-06T01:34:27;3.08;;;2.90;;
67839;SDS011;54636;51.684;5.142;2023-08-06T01:36:59;3.45;;;2.85;;
67839;SDS011;54636;51.684;5.142;2023-08-06T01:39:26;3.67;;;2.17;;
67839;SDS011;54636;51.684;5.142;2023-08-06T01:41:52;8.27;;;3.20;;
67839;SDS011;54636;51.684;5.142;2023-08-06T01:44:18;3.85;;;3.15;;
67839;SDS011;54636;51.684;5.142;2023-08-06T01:46:44;6.82;;;3.25;;
67839;SDS011;54636;51.684;5.142;2023-08-06T01:49:09;4.03;;;3.67;;
67839;SDS011;54636;51.684;5.142;2023-08-06T01:51:34;6.22;;;3.60;;
67839;SDS011;54636;51.684;5.142;2023-08-06T01:54:00;4.82;;;3.10;;
67839;SDS011;54636;51.684;5.142;2023-08-06T01:56:25;5.90;;;3.40;;
67839;SDS011;54636;51.684;5.142;2023-08-06T01:58:50;3.55;;;3.20;;
67839;SDS011;54636;51.684;5.142;2023-08-06T02:01:16;3.80;;;3.50;;
67839;SDS011;54636;51.684;5.142;2023-08-06T02:03:42;3.78;;;3.47;;
67839;SDS011;54636;51.684;5.142;2023-08-06T02:06:07;6.15;;;3.40;;
67839;SDS011;54636;51.684;5.142;2023-08-06T02:08:35;5.28;;;3.70;;
67839;SDS011;54636;51.684;5.142;2023-08-06T02:11:01;3.92;;;3.30;;
67839;SDS011;54636;51.684;5.142;2023-08-06T02:13:27;3.78;;;3.47;;
67839;SDS011;54636;51.684;5.142;2023-08-06T02:15:53;3.42;;;3.22;;
67839;SDS011;54636;51.684;5.142;2023-08-06T02:18:19;7.55;;;3.65;;
67839;SDS011;54636;51.684;5.142;2023-08-06T02:20:54;4.75;;;3.60;;
67839;SDS011;54636;51.684;5.142;2023-08-06T02:23:21;4.60;;;4.00;;
67839;SDS011;54636;51.684;5.142;2023-08-06T02:25:46;3.85;;;3.30;;
67839;SDS011;54636;51.684;5.142;2023-08-06T02:28:12;3.97;;;3.33;;
67839;SDS011;54636;51.684;5.142;2023-08-06T02:30:37;3.83;;;3.13;;
67839;SDS011;54636;51.684;5.142;2023-08-06T02:33:02;4.40;;;3.47;;
67839;SDS011;54636;51.684;5.142;2023-08-06T02:35:28;7.53;;;3.65;;
67839;SDS011;54636;51.684;5.142;2023-08-06T02:37:53;4.72;;;3.60;;
67839;SDS011;54636;51.684;5.142;2023-08-06T02:40:18;7.50;;;3.50;;
67839;SDS011;54636;51.684;5.142;2023-08-06T02:42:44;6.88;;;3.35;;
67839;SDS011;54636;51.684;5.142;2023-08-06T02:45:09;3.92;;;3.55;;
67839;SDS011;54636;51.684;5.142;2023-08-06T02:47:35;6.05;;;3.60;;
67839;SDS011;54636;51.684;5.142;2023-08-06T02:50:00;4.80;;;3.63;;
67839;SDS011;54636;51.684;5.142;2023-08-06T02:52:25;4.47;;;4.15;;
67839;SDS011;54636;51.684;5.142;2023-08-06T02:54:51;5.10;;;4.57;;
67839;SDS011;54636;51.684;5.142;2023-08-06T02:57:16;5.80;;;3.67;;
67839;SDS011;54636;51.684;5.142;2023-08-06T02:59:42;4.00;;;3.50;;
67839;SDS011;54636;51.684;5.142;2023-08-06T03:02:07;7.60;;;4.00;;
67839;SDS011;54636;51.684;5.142;2023-08-06T03:04:32;4.10;;;3.80;;
67839;SDS011;54636;51.684;5.142;2023-08-06T03:06:58;7.05;;;3.95;;
67839;SDS011;54636;51.684;5.142;2023-08-06T03:09:23;4.38;;;4.03;;
67839;SDS011;54636;51.684;5.142;2023-08-06T03:11:48;4.30;;;4.00;;
67839;SDS011;54636;51.684;5.142;2023-08-06T03:14:14;5.95;;;3.97;;
67839;SDS011;54636;51.684;5.142;2023-08-06T03:16:39;6.25;;;4.40;;
67839;SDS011;54636;51.684;5.142;2023-08-06T03:19:04;4.43;;;4.13;;
67839;SDS011;54636;51.684;5.142;2023-08-06T03:21:30;4.78;;;4.10;;
67839;SDS011;54636;51.684;5.142;2023-08-06T03:23:55;4.97;;;4.00;;
67839;SDS011;54636;51.684;5.142;2023-08-06T03:26:20;4.55;;;4.20;;
67839;SDS011;54636;51.684;5.142;2023-08-06T03:28:46;5.50;;;3.95;;
67839;SDS011;54636;51.684;5.142;2023-08-06T03:31:11;7.15;;;3.92;;
67839;SDS011;54636;51.684;5.142;2023-08-06T03:33:36;6.63;;;4.90;;
67839;SDS011;54636;51.684;5.142;2023-08-06T03:36:02;4.68;;;4.40;;
67839;SDS011;54636;51.684;5.142;2023-08-06T03:38:28;4.72;;;4.18;;
67839;SDS011;54636;51.684;5.142;2023-08-06T03:40:53;4.95;;;4.32;;
67839;SDS011;54636;51.684;5.142;2023-08-06T03:43:19;11.88;;;4.90;;
67839;SDS011;54636;51.684;5.142;2023-08-06T03:45:44;5.13;;;4.75;;
67839;SDS011;54636;51.684;5.142;2023-08-06T03:48:09;5.30;;;4.80;;
67839;SDS011;54636;51.684;5.142;2023-08-06T03:50:35;5.88;;;4.78;;
67839;SDS011;54636;51.684;5.142;2023-08-06T03:53:01;5.20;;;4.78;;
67839;SDS011;54636;51.684;5.142;2023-08-06T03:55:27;5.32;;;4.57;;
67839;SDS011;54636;51.684;5.142;2023-08-06T03:57:52;5.30;;;4.90;;
67839;SDS011;54636;51.684;5.142;2023-08-06T04:00:17;5.35;;;4.70;;
67839;SDS011;54636;51.684;5.142;2023-08-06T04:02:43;6.25;;;4.85;;
67839;SDS011;54636;51.684;5.142;2023-08-06T04:05:08;5.63;;;5.13;;
67839;SDS011;54636;51.684;5.142;2023-08-06T04:07:34;6.07;;;5.30;;
67839;SDS011;54636;51.684;5.142;2023-08-06T04:10:00;6.68;;;5.60;;
67839;SDS011;54636;51.684;5.142;2023-08-06T04:12:27;7.47;;;5.93;;
67839;SDS011;54636;51.684;5.142;2023-08-06T04:14:52;9.00;;;5.07;;
67839;SDS011;54636;51.684;5.142;2023-08-06T04:17:18;5.95;;;5.45;;
67839;SDS011;54636;51.684;5.142;2023-08-06T04:19:48;6.70;;;6.13;;
67839;SDS011;54636;51.684;5.142;2023-08-06T04:22:15;10.93;;;7.30;;
67839;SDS011;54636;51.684;5.142;2023-08-06T04:24:41;6.28;;;5.78;;
67839;SDS011;54636;51.684;5.142;2023-08-06T04:27:08;6.15;;;5.55;;
67839;SDS011;54636;51.684;5.142;2023-08-06T04:29:34;8.13;;;6.13;;
67839;SDS011;54636;51.684;5.142;2023-08-06T04:31:59;6.63;;;6.03;;
67839;SDS011;54636;51.684;5.142;2023-08-06T04:34:25;7.38;;;6.40;;
67839;SDS011;54636;51.684;5.142;2023-08-06T04:36:50;8.68;;;7.25;;
67839;SDS011;54636;51.684;5.142;2023-08-06T04:39:15;9.70;;;6.53;;
67839;SDS011;54636;51.684;5.142;2023-08-06T04:41:41;8.80;;;7.78;;
67839;SDS011;54636;51.684;5.142;2023-08-06T04:44:06;9.00;;;7.05;;
67839;SDS011;54636;51.684;5.142;2023-08-06T04:46:31;8.40;;;6.90;;
67839;SDS011;54636;51.684;5.142;2023-08-06T04:48:57;7.40;;;6.85;;
67839;SDS011;54636;51.684;5.142;2023-08-06T04:51:22;6.72;;;6.15;;
67839;SDS011;54636;51.684;5.142;2023-08-06T04:53:47;8.02;;;7.32;;
67839;SDS011;54636;51.684;5.142;2023-08-06T04:56:13;7.95;;;7.22;;
67839;SDS011;54636;51.684;5.142;2023-08-06T04:58:38;8.48;;;7.68;;
67839;SDS011;54636;51.684;5.142;2023-08-06T05:01:03;10.43;;;8.30;;
67839;SDS011;54636;51.684;5.142;2023-08-06T05:03:29;10.50;;;7.60;;
67839;SDS011;54636;51.684;5.142;2023-08-06T05:05:54;8.68;;;7.75;;
67839;SDS011;54636;51.684;5.142;2023-08-06T05:08:20;9.18;;;8.38;;
67839;SDS011;54636;51.684;5.142;2023-08-06T05:10:45;10.15;;;7.90;;
67839;SDS011;54636;51.684;5.142;2023-08-06T05:13:11;8.85;;;8.02;;
67839;SDS011;54636;51.684;5.142;2023-08-06T05:15:36;10.13;;;8.13;;
67839;SDS011;54636;51.684;5.142;2023-08-06T05:18:02;7.88;;;7.18;;
67839;SDS011;54636;51.684;5.142;2023-08-06T05:20:28;13.30;;;7.90;;
67839;SDS011;54636;51.684;5.142;2023-08-06T05:22:53;10.15;;;7.28;;
67839;SDS011;54636;51.684;5.142;2023-08-06T05:25:18;10.18;;;7.57;;
67839;SDS011;54636;51.684;5.142;2023-08-06T05:27:45;8.52;;;7.68;;
67839;SDS011;54636;51.684;5.142;2023-08-06T05:30:10;8.85;;;7.78;;
67839;SDS011;54636;51.684;5.142;2023-08-06T05:32:36;14.25;;;7.95;;
67839;SDS011;54636;51.684;5.142;2023-08-06T05:35:01;10.02;;;7.82;;
67839;SDS011;54636;51.684;5.142;2023-08-06T05:37:27;9.82;;;8.38;;
67839;SDS011;54636;51.684;5.142;2023-08-06T05:39:53;10.40;;;8.82;;
67839;SDS011;54636;51.684;5.142;2023-08-06T05:42:18;9.80;;;8.80;;
67839;SDS011;54636;51.684;5.142;2023-08-06T05:44:43;13.13;;;8.80;;
67839;SDS011;54636;51.684;5.142;2023-08-06T05:47:09;5.97;;;5.55;;
67839;SDS011;54636;51.684;5.142;2023-08-06T05:49:34;3.67;;;2.65;;
67839;SDS011;54636;51.684;5.142;2023-08-06T05:52:00;2.88;;;1.70;;
67839;SDS011;54636;51.684;5.142;2023-08-06T05:54:25;1.05;;;1.00;;
67839;SDS011;54636;51.684;5.142;2023-08-06T05:56:50;3.78;;;0.77;;
67839;SDS011;54636;51.684;5.142;2023-08-06T05:59:16;3.90;;;1.13;;
67839;SDS011;54636;51.684;5.142;2023-08-06T06:01:41;8.07;;;1.45;;
67839;SDS011;54636;51.684;5.142;2023-08-06T06:04:06;5.32;;;1.50;;
67839;SDS011;54636;51.684;5.142;2023-08-06T06:06:32;12.27;;;2.10;;
67839;SDS011;54636;51.684;5.142;2023-08-06T06:08:57;3.10;;;2.10;;
67839;SDS011;54636;51.684;5.142;2023-08-06T06:11:23;3.38;;;2.13;;
67839;SDS011;54636;51.684;5.142;2023-08-06T06:13:51;2.00;;;1.90;;
67839;SDS011;54636;51.684;5.142;2023-08-06T06:16:17;2.47;;;2.28;;
67839;SDS011;54636;51.684;5.142;2023-08-06T06:18:42;2.78;;;2.58;;
67839;SDS011;54636;51.684;5.142;2023-08-06T06:21:08;7.15;;;3.17;;
67839;SDS011;54636;51.684;5.142;2023-08-06T06:23:34;3.40;;;3.20;;
67839;SDS011;54636;51.684;5.142;2023-08-06T06:25:59;3.80;;;3.50;;
67839;SDS011;54636;51.684;5.142;2023-08-06T06:28:25;3.42;;;3.13;;
67839;SDS011;54636;51.684;5.142;2023-08-06T06:30:50;6.72;;;3.13;;
67839;SDS011;54636;51.684;5.142;2023-08-06T06:33:16;3.88;;;2.90;;
67839;SDS011;54636;51.684;5.142;2023-08-06T06:35:41;3.65;;;2.55;;
67839;SDS011;54636;51.684;5.142;2023-08-06T06:38:07;4.30;;;2.47;;
67839;SDS011;54636;51.684;5.142;2023-08-06T06:40:32;5.88;;;2.53;;
67839;SDS011;54636;51.684;5.142;2023-08-06T06:42:58;15.57;;;3.03;;
67839;SDS011;54636;51.684;5.142;2023-08-06T06:45:23;3.00;;;2.80;;
67839;SDS011;54636;51.684;5.142;2023-08-06T06:47:48;6.05;;;3.38;;
67839;SDS011;54636;51.684;5.142;2023-08-06T06:50:14;6.53;;;3.42;;
67839;SDS011;54636;51.684;5.142;2023-08-06T06:52:39;8.35;;;3.17;;
67839;SDS011;54636;51.684;5.142;2023-08-06T06:55:05;5.03;;;2.70;;
67839;SDS011;54636;51.684;5.142;2023-08-06T06:57:30;4.85;;;4.45;;
67839;SDS011;54636;51.684;5.142;2023-08-06T06:59:56;12.93;;;4.63;;
67839;SDS011;54636;51.684;5.142;2023-08-06T07:02:21;4.20;;;3.85;;
67839;SDS011;54636;51.684;5.142;2023-08-06T07:04:47;5.80;;;4.28;;
67839;SDS011;54636;51.684;5.142;2023-08-06T07:07:12;6.78;;;4.45;;
67839;SDS011;54636;51.684;5.142;2023-08-06T07:09:37;4.07;;;3.70;;
67839;SDS011;54636;51.684;5.142;2023-08-06T07:12:03;3.42;;;3.13;;
67839;SDS011;54636;51.684;5.142;2023-08-06T07:14:28;4.60;;;4.20;;
67839;SDS011;54636;51.684;5.142;2023-08-06T07:16:54;4.82;;;4.32;;
67839;SDS011;54636;51.684;5.142;2023-08-06T07:19:19;4.53;;;4.20;;
67839;SDS011;54636;51.684;5.142;2023-08-06T07:21:45;4.35;;;3.95;;
67839;SDS011;54636;51.684;5.142;2023-08-06T07:24:11;7.38;;;4.50;;
67839;SDS011;54636;51.684;5.142;2023-08-06T07:26:36;7.78;;;3.80;;
67839;SDS011;54636;51.684;5.142;2023-08-06T07:29:02;6.00;;;4.60;;
67839;SDS011;54636;51.684;5.142;2023-08-06T07:31:28;10.02;;;5.35;;
67839;SDS011;54636;51.684;5.142;2023-08-06T07:33:53;11.15;;;5.47;;
67839;SDS011;54636;51.684;5.142;2023-08-06T07:36:18;9.95;;;5.70;;
67839;SDS011;54636;51.684;5.142;2023-08-06T07:38:44;8.48;;;6.28;;
67839;SDS011;54636;51.684;5.142;2023-08-06T07:41:09;6.10;;;5.50;;
67839;SDS011;54636;51.684;5.142;2023-08-06T07:43:35;7.13;;;5.43;;
67839;SDS011;54636;51.684;5.142;2023-08-06T07:46:01;9.07;;;5.75;;
67839;SDS011;54636;51.684;5.142;2023-08-06T07:48:27;10.32;;;5.72;;
67839;SDS011;54636;51.684;5.142;2023-08-06T07:50:53;6.60;;;4.65;;
67839;SDS011;54636;51.684;5.142;2023-08-06T07:53:22;7.35;;;4.95;;
67839;SDS011;54636;51.684;5.142;2023-08-06T07:55:52;14.77;;;5.10;;
67839;SDS011;54636;51.684;5.142;2023-08-06T07:58:18;9.73;;;4.57;;
67839;SDS011;54636;51.684;5.142;2023-08-06T08:00:45;15.32;;;3.83;;
67839;SDS011;54636;51.684;5.142;2023-08-06T08:03:14;8.85;;;4.53;;
67839;SDS011;54636;51.684;5.142;2023-08-06T08:05:40;8.50;;;3.55;;
67839;SDS011;54636;51.684;5.142;2023-08-06T08:08:06;10.88;;;3.83;;
67839;SDS011;54636;51.684;5.142;2023-08-06T08:10:32;10.73;;;4.18;;
67839;SDS011;54636;51.684;5.142;2023-08-06T08:12:58;5.97;;;3.30;;
67839;SDS011;54636;51.684;5.142;2023-08-06T08:15:24;3.92;;;2.30;;
67839;SDS011;54636;51.684;5.142;2023-08-06T08:17:51;6.05;;;2.10;;
67839;SDS011;54636;51.684;5.142;2023-08-06T08:20:17;7.38;;;2.65;;
67839;SDS011;54636;51.684;5.142;2023-08-06T08:22:42;5.00;;;1.88;;
67839;SDS011;54636;51.684;5.142;2023-08-06T08:25:08;5.07;;;2.20;;
67839;SDS011;54636;51.684;5.142;2023-08-06T08:27:33;10.65;;;2.22;;
67839;SDS011;54636;51.684;5.142;2023-08-06T08:29:59;10.88;;;2.33;;
67839;SDS011;54636;51.684;5.142;2023-08-06T08:32:24;2.70;;;1.77;;
67839;SDS011;54636;51.684;5.142;2023-08-06T08:34:49;8.00;;;2.20;;
67839;SDS011;54636;51.684;5.142;2023-08-06T08:37:15;11.45;;;2.38;;
67839;SDS011;54636;51.684;5.142;2023-08-06T08:39:40;6.72;;;2.20;;
67839;SDS011;54636;51.684;5.142;2023-08-06T08:42:06;11.07;;;2.35;;
67839;SDS011;54636;51.684;5.142;2023-08-06T08:44:32;6.88;;;2.42;;
67839;SDS011;54636;51.684;5.142;2023-08-06T08:46:58;6.13;;;2.60;;
67839;SDS011;54636;51.684;5.142;2023-08-06T08:49:24;5.65;;;2.35;;
67839;SDS011;54636;51.684;5.142;2023-08-06T08:51:53;8.80;;;3.03;;
67839;SDS011;54636;51.684;5.142;2023-08-06T08:54:19;8.05;;;2.72;;
67839;SDS011;54636;51.684;5.142;2023-08-06T08:56:46;6.10;;;2.67;;
67839;SDS011;54636;51.684;5.142;2023-08-06T08:59:11;5.50;;;2.78;;
67839;SDS011;54636;51.684;5.142;2023-08-06T09:01:37;2.95;;;2.30;;
67839;SDS011;54636;51.684;5.142;2023-08-06T09:04:05;7.35;;;3.10;;
67839;SDS011;54636;51.684;5.142;2023-08-06T09:06:36;5.43;;;2.72;;
67839;SDS011;54636;51.684;5.142;2023-08-06T09:09:07;11.73;;;3.00;;
67839;SDS011;54636;51.684;5.142;2023-08-06T09:11:39;6.32;;;2.75;;
67839;SDS011;54636;51.684;5.142;2023-08-06T09:14:08;6.95;;;2.58;;
67839;SDS011;54636;51.684;5.142;2023-08-06T09:16:37;3.95;;;2.22;;
67839;SDS011;54636;51.684;5.142;2023-08-06T09:19:12;6.82;;;3.10;;
67839;SDS011;54636;51.684;5.142;2023-08-06T09:21:42;5.50;;;2.70;;
67839;SDS011;54636;51.684;5.142;2023-08-06T09:24:08;3.35;;;2.75;;
67839;SDS011;54636;51.684;5.142;2023-08-06T09:26:35;12.40;;;3.22;;
67839;SDS011;54636;51.684;5.142;2023-08-06T09:29:01;6.85;;;2.80;;
67839;SDS011;54636;51.684;5.142;2023-08-06T09:31:33;5.63;;;2.60;;
67839;SDS011;54636;51.684;5.142;2023-08-06T09:34:10;6.35;;;2.67;;
67839;SDS011;54636;51.684;5.142;2023-08-06T09:36:47;6.57;;;3.15;;
67839;SDS011;54636;51.684;5.142;2023-08-06T09:39:14;7.10;;;3.08;;
67839;SDS011;54636;51.684;5.142;2023-08-06T09:41:41;4.82;;;2.97;;
67839;SDS011;54636;51.684;5.142;2023-08-06T09:44:17;4.35;;;2.88;;
67839;SDS011;54636;51.684;5.142;2023-08-06T09:46:47;8.20;;;3.80;;
67839;SDS011;54636;51.684;5.142;2023-08-06T09:49:14;6.55;;;3.13;;
67839;SDS011;54636;51.684;5.142;2023-08-06T09:51:39;7.40;;;3.58;;
67839;SDS011;54636;51.684;5.142;2023-08-06T09:54:06;6.57;;;3.28;;
67839;SDS011;54636;51.684;5.142;2023-08-06T09:56:33;6.93;;;3.05;;
67839;SDS011;54636;51.684;5.142;2023-08-06T09:59:03;9.10;;;2.90;;
67839;SDS011;54636;51.684;5.142;2023-08-06T10:01:31;7.15;;;3.28;;
67839;SDS011;54636;51.684;5.142;2023-08-06T10:03:58;5.15;;;3.50;;
67839;SDS011;54636;51.684;5.142;2023-08-06T10:06:25;7.22;;;3.15;;
67839;SDS011;54636;51.684;5.142;2023-08-06T10:08:51;7.07;;;3.53;;
67839;SDS011;54636;51.684;5.142;2023-08-06T10:11:17;6.32;;;3.45;;
67839;SDS011;54636;51.684;5.142;2023-08-06T10:13:45;6.82;;;2.55;;
67839;SDS011;54636;51.684;5.142;2023-08-06T10:16:11;8.13;;;3.35;;
67839;SDS011;54636;51.684;5.142;2023-08-06T10:18:37;7.68;;;3.15;;
67839;SDS011;54636;51.684;5.142;2023-08-06T10:21:04;4.55;;;3.00;;
67839;SDS011;54636;51.684;5.142;2023-08-06T10:23:33;3.95;;;3.25;;
67839;SDS011;54636;51.684;5.142;2023-08-06T10:26:03;6.53;;;3.58;;
67839;SDS011;54636;51.684;5.142;2023-08-06T10:28:38;3.35;;;2.75;;
67839;SDS011;54636;51.684;5.142;2023-08-06T10:31:05;8.70;;;2.85;;
67839;SDS011;54636;51.684;5.142;2023-08-06T10:33:46;5.63;;;3.28;;
67839;SDS011;54636;51.684;5.142;2023-08-06T10:36:13;5.05;;;3.08;;
67839;SDS011;54636;51.684;5.142;2023-08-06T10:41:15;4.85;;;2.70;;
67839;SDS011;54636;51.684;5.142;2023-08-06T10:43:49;6.55;;;2.72;;
67839;SDS011;54636;51.684;5.142;2023-08-06T10:46:22;4.25;;;3.30;;
67839;SDS011;54636;51.684;5.142;2023-08-06T10:48:54;6.50;;;3.30;;
67839;SDS011;54636;51.684;5.142;2023-08-06T10:51:19;6.82;;;3.15;;
67839;SDS011;54636;51.684;5.142;2023-08-06T10:53:45;7.45;;;3.15;;
67839;SDS011;54636;51.684;5.142;2023-08-06T10:56:12;6.03;;;3.05;;
67839;SDS011;54636;51.684;5.142;2023-08-06T10:58:47;5.40;;;3.45;;
67839;SDS011;54636;51.684;5.142;2023-08-06T11:01:15;7.05;;;3.40;;
67839;SDS011;54636;51.684;5.142;2023-08-06T11:03:44;8.32;;;2.70;;
67839;SDS011;54636;51.684;5.142;2023-08-06T11:06:16;8.02;;;2.90;;
67839;SDS011;54636;51.684;5.142;2023-08-06T11:08:47;3.60;;;2.58;;
67839;SDS011;54636;51.684;5.142;2023-08-06T11:11:14;5.97;;;2.95;;
67839;SDS011;54636;51.684;5.142;2023-08-06T11:13:41;4.90;;;2.55;;
67839;SDS011;54636;51.684;5.142;2023-08-06T11:16:13;4.80;;;1.65;;
67839;SDS011;54636;51.684;5.142;2023-08-06T11:18:40;4.80;;;1.88;;
67839;SDS011;54636;51.684;5.142;2023-08-06T11:21:06;2.22;;;1.83;;
67839;SDS011;54636;51.684;5.142;2023-08-06T11:23:32;4.43;;;1.80;;
67839;SDS011;54636;51.684;5.142;2023-08-06T11:25:59;1.98;;;1.58;;
67839;SDS011;54636;51.684;5.142;2023-08-06T11:28:25;4.53;;;1.80;;
67839;SDS011;54636;51.684;5.142;2023-08-06T11:30:50;3.15;;;1.50;;
67839;SDS011;54636;51.684;5.142;2023-08-06T11:33:26;3.65;;;1.73;;
67839;SDS011;54636;51.684;5.142;2023-08-06T11:35:53;5.93;;;1.60;;
67839;SDS011;54636;51.684;5.142;2023-08-06T11:38:19;2.80;;;1.40;;
67839;SDS011;54636;51.684;5.142;2023-08-06T11:40:45;2.28;;;1.20;;
67839;SDS011;54636;51.684;5.142;2023-08-06T11:43:12;4.30;;;1.75;;
67839;SDS011;54636;51.684;5.142;2023-08-06T11:45:38;1.48;;;1.15;;
67839;SDS011;54636;51.684;5.142;2023-08-06T11:48:04;2.15;;;1.48;;
67839;SDS011;54636;51.684;5.142;2023-08-06T11:50:30;2.83;;;1.45;;
67839;SDS011;54636;51.684;5.142;2023-08-06T11:52:56;3.03;;;1.20;;
67839;SDS011;54636;51.684;5.142;2023-08-06T11:55:23;5.50;;;1.50;;
67839;SDS011;54636;51.684;5.142;2023-08-06T11:57:50;1.17;;;1.00;;
67839;SDS011;54636;51.684;5.142;2023-08-06T12:00:16;5.68;;;1.17;;
67839;SDS011;54636;51.684;5.142;2023-08-06T12:02:43;0.95;;;0.90;;
67839;SDS011;54636;51.684;5.142;2023-08-06T12:05:16;2.63;;;1.40;;
67839;SDS011;54636;51.684;5.142;2023-08-06T12:07:46;2.85;;;1.27;;
67839;SDS011;54636;51.684;5.142;2023-08-06T12:10:15;3.30;;;1.60;;
67839;SDS011;54636;51.684;5.142;2023-08-06T12:12:41;4.03;;;1.05;;
67839;SDS011;54636;51.684;5.142;2023-08-06T12:15:07;4.00;;;1.30;;
67839;SDS011;54636;51.684;5.142;2023-08-06T12:17:34;1.80;;;1.10;;
67839;SDS011;54636;51.684;5.142;2023-08-06T12:20:00;0.82;;;0.82;;
67839;SDS011;54636;51.684;5.142;2023-08-06T12:22:26;1.85;;;1.20;;
67839;SDS011;54636;51.684;5.142;2023-08-06T12:24:52;3.17;;;1.63;;
67839;SDS011;54636;51.684;5.142;2023-08-06T12:27:17;3.67;;;1.30;;
67839;SDS011;54636;51.684;5.142;2023-08-06T12:29:52;2.83;;;1.33;;
67839;SDS011;54636;51.684;5.142;2023-08-06T12:32:17;1.60;;;0.88;;
67839;SDS011;54636;51.684;5.142;2023-08-06T12:34:44;2.70;;;1.10;;
67839;SDS011;54636;51.684;5.142;2023-08-06T12:37:09;4.35;;;1.60;;
67839;SDS011;54636;51.684;5.142;2023-08-06T12:39:35;6.72;;;1.85;;
67839;SDS011;54636;51.684;5.142;2023-08-06T12:42:02;2.88;;;1.10;;
67839;SDS011;54636;51.684;5.142;2023-08-06T12:44:28;1.90;;;1.10;;
67839;SDS011;54636;51.684;5.142;2023-08-06T12:46:54;7.88;;;1.80;;
67839;SDS011;54636;51.684;5.142;2023-08-06T12:49:19;4.57;;;2.13;;
67839;SDS011;54636;51.684;5.142;2023-08-06T12:51:51;2.50;;;1.20;;
67839;SDS011;54636;51.684;5.142;2023-08-06T12:54:17;1.13;;;1.02;;
67839;SDS011;54636;51.684;5.142;2023-08-06T12:56:43;1.65;;;1.40;;
67839;SDS011;54636;51.684;5.142;2023-08-06T12:59:09;2.30;;;1.17;;
67839;SDS011;54636;51.684;5.142;2023-08-06T13:01:35;3.88;;;1.40;;
67839;SDS011;54636;51.684;5.142;2023-08-06T13:04:02;3.80;;;1.45;;
67839;SDS011;54636;51.684;5.142;2023-08-06T13:06:27;1.38;;;1.00;;
67839;SDS011;54636;51.684;5.142;2023-08-06T13:08:53;2.58;;;0.80;;
67839;SDS011;54636;51.684;5.142;2023-08-06T13:11:18;3.65;;;0.90;;
67839;SDS011;54636;51.684;5.142;2023-08-06T13:13:44;2.28;;;1.00;;
67839;SDS011;54636;51.684;5.142;2023-08-06T13:16:09;1.60;;;0.93;;
67839;SDS011;54636;51.684;5.142;2023-08-06T13:18:35;2.70;;;0.90;;
67839;SDS011;54636;51.684;5.142;2023-08-06T13:21:00;1.67;;;0.80;;
67839;SDS011;54636;51.684;5.142;2023-08-06T13:23:26;2.00;;;0.88;;
67839;SDS011;54636;51.684;5.142;2023-08-06T13:25:51;4.38;;;1.23;;
67839;SDS011;54636;51.684;5.142;2023-08-06T13:28:16;1.85;;;1.00;;
67839;SDS011;54636;51.684;5.142;2023-08-06T13:30:42;1.60;;;1.02;;
67839;SDS011;54636;51.684;5.142;2023-08-06T13:33:08;4.55;;;1.08;;
67839;SDS011;54636;51.684;5.142;2023-08-06T13:35:34;2.80;;;1.00;;
67839;SDS011;54636;51.684;5.142;2023-08-06T13:37:59;1.00;;;0.95;;
67839;SDS011;54636;51.684;5.142;2023-08-06T13:40:27;2.80;;;0.90;;
67839;SDS011;54636;51.684;5.142;2023-08-06T13:42:53;2.85;;;0.85;;
67839;SDS011;54636;51.684;5.142;2023-08-06T13:45:18;2.08;;;1.08;;
67839;SDS011;54636;51.684;5.142;2023-08-06T13:47:44;1.00;;;0.70;;
67839;SDS011;54636;51.684;5.142;2023-08-06T13:50:09;0.95;;;0.50;;
67839;SDS011;54636;51.684;5.142;2023-08-06T13:52:35;1.15;;;0.75;;
67839;SDS011;54636;51.684;5.142;2023-08-06T13:55:01;0.82;;;0.30;;
67839;SDS011;54636;51.684;5.142;2023-08-06T13:57:28;1.10;;;0.38;;
67839;SDS011;54636;51.684;5.142;2023-08-06T13:59:54;2.80;;;0.68;;
67839;SDS011;54636;51.684;5.142;2023-08-06T14:02:19;4.05;;;0.80;;
67839;SDS011;54636;51.684;5.142;2023-08-06T14:04:44;0.60;;;0.60;;
67839;SDS011;54636;51.684;5.142;2023-08-06T14:07:10;0.65;;;0.60;;
67839;SDS011;54636;51.684;5.142;2023-08-06T14:09:35;2.58;;;0.80;;
67839;SDS011;54636;51.684;5.142;2023-08-06T14:12:01;3.08;;;0.60;;
67839;SDS011;54636;51.684;5.142;2023-08-06T14:14:26;1.00;;;0.80;;
67839;SDS011;54636;51.684;5.142;2023-08-06T14:16:52;2.58;;;0.60;;
67839;SDS011;54636;51.684;5.142;2023-08-06T14:19:19;1.33;;;0.90;;
67839;SDS011;54636;51.684;5.142;2023-08-06T14:21:44;1.65;;;0.85;;
67839;SDS011;54636;51.684;5.142;2023-08-06T14:24:09;0.95;;;0.60;;
67839;SDS011;54636;51.684;5.142;2023-08-06T14:26:35;0.55;;;0.50;;
67839;SDS011;54636;51.684;5.142;2023-08-06T14:29:00;1.30;;;0.68;;
67839;SDS011;54636;51.684;5.142;2023-08-06T14:31:26;0.35;;;0.35;;
67839;SDS011;54636;51.684;5.142;2023-08-06T14:33:52;2.95;;;0.73;;
67839;SDS011;54636;51.684;5.142;2023-08-06T14:36:17;0.68;;;0.55;;
67839;SDS011;54636;51.684;5.142;2023-08-06T14:38:43;2.67;;;0.70;;
67839;SDS011;54636;51.684;5.142;2023-08-06T14:41:08;2.08;;;0.82;;
67839;SDS011;54636;51.684;5.142;2023-08-06T14:43:34;1.33;;;0.70;;
67839;SDS011;54636;51.684;5.142;2023-08-06T14:45:59;1.55;;;0.82;;
67839;SDS011;54636;51.684;5.142;2023-08-06T14:48:25;1.05;;;0.75;;